Seattle, Washington
Traffic Map
Current Weather Conditions
Seattle, Washington
Broken Clouds
Broken Clouds
14°
Feels Like: 14°
Wind Chill: 14° Ceiling: 12000
Heat Index: 14° Visibility: 10mi
Dew Point: 10° Wind: 5mph
Humidity: 77% Direction: 290° (WNW)
Pressure: 29.44in Gusts: 0mph
Raw Report DataKBFI 251753Z 29004KT 10SM BKN120 14/10 A2944 RMK AO2 SLP970 60004 T01390100 10144 20100 58041
Traffic Incident Summary
Active as of:
Severity:
Category:
InformationThere was an issue retrieving the traffic information for this location. Please try a different location or try again shortly.
Advertisements
Track Severe Weather on mobile